sensor_id;sensor_type;location;lat;lon;timestamp;temperature;humidity
40676;DHT22;26359;48.750;9.314;2024-02-23T00:01:03;6.20;99.90
40676;DHT22;26359;48.750;9.314;2024-02-23T00:03:29;6.20;99.90
40676;DHT22;26359;48.750;9.314;2024-02-23T00:05:54;6.20;99.90
40676;DHT22;26359;48.750;9.314;2024-02-23T00:08:20;6.20;99.90
40676;DHT22;26359;48.750;9.314;2024-02-23T00:10:45;6.20;99.90
40676;DHT22;26359;48.750;9.314;2024-02-23T00:13:11;6.20;99.90
40676;DHT22;26359;48.750;9.314;2024-02-23T00:15:37;6.20;99.90
40676;DHT22;26359;48.750;9.314;2024-02-23T00:18:02;6.20;99.90
40676;DHT22;26359;48.750;9.314;2024-02-23T00:20:29;6.20;99.90
40676;DHT22;26359;48.750;9.314;2024-02-23T00:22:54;6.20;99.90
40676;DHT22;26359;48.750;9.314;2024-02-23T00:25:20;6.20;99.90
40676;DHT22;26359;48.750;9.314;2024-02-23T00:27:45;6.20;99.90
40676;DHT22;26359;48.750;9.314;2024-02-23T00:30:13;6.20;99.90
40676;DHT22;26359;48.750;9.314;2024-02-23T00:32:38;6.20;99.90
40676;DHT22;26359;48.750;9.314;2024-02-23T00:35:04;6.20;99.90
40676;DHT22;26359;48.750;9.314;2024-02-23T00:37:30;6.20;99.90
40676;DHT22;26359;48.750;9.314;2024-02-23T00:40:03;6.20;99.90
40676;DHT22;26359;48.750;9.314;2024-02-23T00:42:30;6.20;99.90
40676;DHT22;26359;48.750;9.314;2024-02-23T00:44:56;6.30;99.90
40676;DHT22;26359;48.750;9.314;2024-02-23T00:47:21;6.30;99.90
40676;DHT22;26359;48.750;9.314;2024-02-23T00:49:47;6.30;99.90
40676;DHT22;26359;48.750;9.314;2024-02-23T00:52:12;6.20;99.90
40676;DHT22;26359;48.750;9.314;2024-02-23T00:54:38;6.30;99.90
40676;DHT22;26359;48.750;9.314;2024-02-23T00:57:03;6.30;99.90
40676;DHT22;26359;48.750;9.314;2024-02-23T00:59:29;6.30;99.90
40676;DHT22;26359;48.750;9.314;2024-02-23T01:01:55;6.30;99.90
40676;DHT22;26359;48.750;9.314;2024-02-23T01:04:21;6.30;99.90
40676;DHT22;26359;48.750;9.314;2024-02-23T01:06:46;6.20;99.90
40676;DHT22;26359;48.750;9.314;2024-02-23T01:09:12;6.30;99.90
40676;DHT22;26359;48.750;9.314;2024-02-23T01:11:38;6.30;99.90
40676;DHT22;26359;48.750;9.314;2024-02-23T01:14:04;6.30;99.90
40676;DHT22;26359;48.750;9.314;2024-02-23T01:16:30;6.30;99.90
40676;DHT22;26359;48.750;9.314;2024-02-23T01:18:57;6.30;99.90
40676;DHT22;26359;48.750;9.314;2024-02-23T01:21:23;6.30;99.90
40676;DHT22;26359;48.750;9.314;2024-02-23T01:23:49;6.20;99.90
40676;DHT22;26359;48.750;9.314;2024-02-23T01:26:14;6.30;99.90
40676;DHT22;26359;48.750;9.314;2024-02-23T01:28:40;6.30;99.90
40676;DHT22;26359;48.750;9.314;2024-02-23T01:31:08;6.30;99.90
40676;DHT22;26359;48.750;9.314;2024-02-23T01:33:36;6.30;99.90
40676;DHT22;26359;48.750;9.314;2024-02-23T01:36:04;6.30;99.90
40676;DHT22;26359;48.750;9.314;2024-02-23T01:38:30;6.30;99.90
40676;DHT22;26359;48.750;9.314;2024-02-23T01:41:00;6.30;99.90
40676;DHT22;26359;48.750;9.314;2024-02-23T01:43:26;6.20;99.90
40676;DHT22;26359;48.750;9.314;2024-02-23T01:45:52;6.20;99.90
40676;DHT22;26359;48.750;9.314;2024-02-23T01:48:18;6.20;99.90
40676;DHT22;26359;48.750;9.314;2024-02-23T01:50:44;6.20;99.90
40676;DHT22;26359;48.750;9.314;2024-02-23T01:53:11;6.20;99.90
40676;DHT22;26359;48.750;9.314;2024-02-23T01:55:40;6.20;99.90
40676;DHT22;26359;48.750;9.314;2024-02-23T01:58:06;6.20;99.90
40676;DHT22;26359;48.750;9.314;2024-02-23T02:00:32;6.10;99.90
40676;DHT22;26359;48.750;9.314;2024-02-23T02:02:59;6.10;99.90
40676;DHT22;26359;48.750;9.314;2024-02-23T02:05:24;6.20;99.90
40676;DHT22;26359;48.750;9.314;2024-02-23T02:07:51;6.20;99.90
40676;DHT22;26359;48.750;9.314;2024-02-23T02:10:20;6.20;99.90
40676;DHT22;26359;48.750;9.314;2024-02-23T02:12:45;6.10;99.90
40676;DHT22;26359;48.750;9.314;2024-02-23T02:15:11;6.00;99.90
40676;DHT22;26359;48.750;9.314;2024-02-23T02:17:36;6.00;99.90
40676;DHT22;26359;48.750;9.314;2024-02-23T02:20:03;5.90;99.90
40676;DHT22;26359;48.750;9.314;2024-02-23T02:22:32;5.80;99.90
40676;DHT22;26359;48.750;9.314;2024-02-23T02:24:58;5.70;99.90
40676;DHT22;26359;48.750;9.314;2024-02-23T02:27:24;5.70;99.90
40676;DHT22;26359;48.750;9.314;2024-02-23T02:29:52;5.60;99.90
40676;DHT22;26359;48.750;9.314;2024-02-23T02:32:18;5.50;99.90
40676;DHT22;26359;48.750;9.314;2024-02-23T02:34:43;5.50;99.90
40676;DHT22;26359;48.750;9.314;2024-02-23T02:37:09;5.50;99.90
40676;DHT22;26359;48.750;9.314;2024-02-23T02:39:35;5.50;99.90
40676;DHT22;26359;48.750;9.314;2024-02-23T02:42:01;5.50;99.90
40676;DHT22;26359;48.750;9.314;2024-02-23T02:44:26;5.50;99.90
40676;DHT22;26359;48.750;9.314;2024-02-23T02:46:58;5.40;99.90
40676;DHT22;26359;48.750;9.314;2024-02-23T02:49:24;5.40;99.90
40676;DHT22;26359;48.750;9.314;2024-02-23T02:51:50;5.40;99.90
40676;DHT22;26359;48.750;9.314;2024-02-23T02:54:15;5.30;99.90
40676;DHT22;26359;48.750;9.314;2024-02-23T02:56:47;5.30;99.90
40676;DHT22;26359;48.750;9.314;2024-02-23T02:59:12;5.20;99.90
40676;DHT22;26359;48.750;9.314;2024-02-23T03:01:39;5.30;99.90
40676;DHT22;26359;48.750;9.314;2024-02-23T03:04:05;5.30;99.90
40676;DHT22;26359;48.750;9.314;2024-02-23T03:06:31;5.30;99.90
40676;DHT22;26359;48.750;9.314;2024-02-23T03:08:56;5.40;99.90
40676;DHT22;26359;48.750;9.314;2024-02-23T03:11:22;5.30;99.90
40676;DHT22;26359;48.750;9.314;2024-02-23T03:13:47;5.40;99.90
40676;DHT22;26359;48.750;9.314;2024-02-23T03:16:20;5.40;99.90
40676;DHT22;26359;48.750;9.314;2024-02-23T03:18:46;5.40;99.90
40676;DHT22;26359;48.750;9.314;2024-02-23T03:21:12;5.50;99.90
40676;DHT22;26359;48.750;9.314;2024-02-23T03:23:38;5.50;99.90
40676;DHT22;26359;48.750;9.314;2024-02-23T03:26:06;5.50;99.90
40676;DHT22;26359;48.750;9.314;2024-02-23T03:28:31;5.50;99.90
40676;DHT22;26359;48.750;9.314;2024-02-23T03:30:57;5.40;99.90
40676;DHT22;26359;48.750;9.314;2024-02-23T03:33:23;5.40;99.90
40676;DHT22;26359;48.750;9.314;2024-02-23T03:35:48;5.50;99.90
40676;DHT22;26359;48.750;9.314;2024-02-23T03:38:14;5.40;99.90
40676;DHT22;26359;48.750;9.314;2024-02-23T03:40:40;5.40;99.90
40676;DHT22;26359;48.750;9.314;2024-02-23T03:43:06;5.50;99.90
40676;DHT22;26359;48.750;9.314;2024-02-23T03:45:31;5.40;99.90
40676;DHT22;26359;48.750;9.314;2024-02-23T03:47:57;5.30;99.90
40676;DHT22;26359;48.750;9.314;2024-02-23T03:50:23;5.30;99.90
40676;DHT22;26359;48.750;9.314;2024-02-23T03:52:49;5.40;99.90
40676;DHT22;26359;48.750;9.314;2024-02-23T03:55:14;5.40;99.90
40676;DHT22;26359;48.750;9.314;2024-02-23T03:57:40;5.40;99.90
40676;DHT22;26359;48.750;9.314;2024-02-23T04:00:05;5.40;99.90
40676;DHT22;26359;48.750;9.314;2024-02-23T04:02:33;5.40;99.90
40676;DHT22;26359;48.750;9.314;2024-02-23T04:04:58;5.50;99.90
40676;DHT22;26359;48.750;9.314;2024-02-23T04:07:24;5.40;99.90
40676;DHT22;26359;48.750;9.314;2024-02-23T04:09:49;5.30;99.90
40676;DHT22;26359;48.750;9.314;2024-02-23T04:12:18;5.40;99.90
40676;DHT22;26359;48.750;9.314;2024-02-23T04:14:45;5.40;99.90
40676;DHT22;26359;48.750;9.314;2024-02-23T04:17:11;5.50;99.90
40676;DHT22;26359;48.750;9.314;2024-02-23T04:19:37;5.40;99.90
40676;DHT22;26359;48.750;9.314;2024-02-23T04:22:03;5.40;99.90
40676;DHT22;26359;48.750;9.314;2024-02-23T04:24:29;5.40;99.90
40676;DHT22;26359;48.750;9.314;2024-02-23T04:26:54;5.40;99.90
40676;DHT22;26359;48.750;9.314;2024-02-23T04:29:20;5.30;99.90
40676;DHT22;26359;48.750;9.314;2024-02-23T04:31:45;5.30;99.90
40676;DHT22;26359;48.750;9.314;2024-02-23T04:34:11;5.30;99.90
40676;DHT22;26359;48.750;9.314;2024-02-23T04:36:36;5.30;99.90
40676;DHT22;26359;48.750;9.314;2024-02-23T04:39:02;5.30;99.90
40676;DHT22;26359;48.750;9.314;2024-02-23T04:41:28;5.30;99.90
40676;DHT22;26359;48.750;9.314;2024-02-23T04:43:53;5.30;99.90
40676;DHT22;26359;48.750;9.314;2024-02-23T04:46:25;5.30;99.90
40676;DHT22;26359;48.750;9.314;2024-02-23T04:48:50;5.30;99.90
40676;DHT22;26359;48.750;9.314;2024-02-23T04:51:16;5.30;99.90
40676;DHT22;26359;48.750;9.314;2024-02-23T04:53:41;5.30;99.90
40676;DHT22;26359;48.750;9.314;2024-02-23T04:56:07;5.30;99.90
40676;DHT22;26359;48.750;9.314;2024-02-23T04:58:32;5.30;99.90
40676;DHT22;26359;48.750;9.314;2024-02-23T05:00:58;5.30;99.90
40676;DHT22;26359;48.750;9.314;2024-02-23T05:03:23;5.30;99.90
40676;DHT22;26359;48.750;9.314;2024-02-23T05:05:49;5.40;99.90
40676;DHT22;26359;48.750;9.314;2024-02-23T05:08:19;5.40;99.90
40676;DHT22;26359;48.750;9.314;2024-02-23T05:10:46;5.40;99.90
40676;DHT22;26359;48.750;9.314;2024-02-23T05:13:12;5.40;99.90
40676;DHT22;26359;48.750;9.314;2024-02-23T05:15:38;5.40;99.90
40676;DHT22;26359;48.750;9.314;2024-02-23T05:18:03;5.50;99.90
40676;DHT22;26359;48.750;9.314;2024-02-23T05:20:29;5.40;99.90
40676;DHT22;26359;48.750;9.314;2024-02-23T05:22:55;5.40;99.90
40676;DHT22;26359;48.750;9.314;2024-02-23T05:25:21;5.40;99.90
40676;DHT22;26359;48.750;9.314;2024-02-23T05:27:46;5.40;99.90
40676;DHT22;26359;48.750;9.314;2024-02-23T05:30:12;5.40;99.90
40676;DHT22;26359;48.750;9.314;2024-02-23T05:32:38;5.40;99.90
40676;DHT22;26359;48.750;9.314;2024-02-23T05:35:04;5.40;99.90
40676;DHT22;26359;48.750;9.314;2024-02-23T05:37:29;5.40;99.90
40676;DHT22;26359;48.750;9.314;2024-02-23T05:39:55;5.40;99.90
40676;DHT22;26359;48.750;9.314;2024-02-23T05:42:20;5.40;99.90
40676;DHT22;26359;48.750;9.314;2024-02-23T05:44:46;5.40;99.90
40676;DHT22;26359;48.750;9.314;2024-02-23T05:47:14;5.30;99.90
40676;DHT22;26359;48.750;9.314;2024-02-23T05:49:39;5.40;99.90
40676;DHT22;26359;48.750;9.314;2024-02-23T05:52:05;5.30;99.90
40676;DHT22;26359;48.750;9.314;2024-02-23T05:54:31;5.30;99.90
40676;DHT22;26359;48.750;9.314;2024-02-23T05:56:56;5.30;99.90
40676;DHT22;26359;48.750;9.314;2024-02-23T05:59:22;5.30;99.90
40676;DHT22;26359;48.750;9.314;2024-02-23T06:01:47;5.20;99.90
40676;DHT22;26359;48.750;9.314;2024-02-23T06:04:13;5.20;99.90
40676;DHT22;26359;48.750;9.314;2024-02-23T06:06:42;5.30;99.90
40676;DHT22;26359;48.750;9.314;2024-02-23T06:09:10;5.30;99.90
40676;DHT22;26359;48.750;9.314;2024-02-23T06:11:36;5.20;99.90
40676;DHT22;26359;48.750;9.314;2024-02-23T06:14:01;5.20;99.90
40676;DHT22;26359;48.750;9.314;2024-02-23T06:16:27;5.20;99.90
40676;DHT22;26359;48.750;9.314;2024-02-23T06:18:52;5.20;99.90
40676;DHT22;26359;48.750;9.314;2024-02-23T06:21:18;5.20;99.90
40676;DHT22;26359;48.750;9.314;2024-02-23T06:23:44;5.20;99.90
40676;DHT22;26359;48.750;9.314;2024-02-23T06:26:10;5.20;99.90
40676;DHT22;26359;48.750;9.314;2024-02-23T06:28:36;5.20;99.90
40676;DHT22;26359;48.750;9.314;2024-02-23T06:31:05;5.20;99.90
40676;DHT22;26359;48.750;9.314;2024-02-23T06:33:31;5.20;99.90
40676;DHT22;26359;48.750;9.314;2024-02-23T06:35:56;5.20;99.90
40676;DHT22;26359;48.750;9.314;2024-02-23T06:38:22;5.10;99.90
40676;DHT22;26359;48.750;9.314;2024-02-23T06:40:48;5.10;99.90
40676;DHT22;26359;48.750;9.314;2024-02-23T06:43:13;5.10;99.90
40676;DHT22;26359;48.750;9.314;2024-02-23T06:45:39;5.10;99.90
40676;DHT22;26359;48.750;9.314;2024-02-23T06:48:05;5.10;99.90
40676;DHT22;26359;48.750;9.314;2024-02-23T06:50:30;5.10;99.90
40676;DHT22;26359;48.750;9.314;2024-02-23T06:52:56;5.10;99.90
40676;DHT22;26359;48.750;9.314;2024-02-23T06:55:21;5.10;99.90
40676;DHT22;26359;48.750;9.314;2024-02-23T06:57:47;5.10;99.90
40676;DHT22;26359;48.750;9.314;2024-02-23T07:00:13;5.20;99.90
40676;DHT22;26359;48.750;9.314;2024-02-23T07:02:39;5.20;99.90
40676;DHT22;26359;48.750;9.314;2024-02-23T07:05:05;5.30;99.90
40676;DHT22;26359;48.750;9.314;2024-02-23T07:07:31;5.20;99.90
40676;DHT22;26359;48.750;9.314;2024-02-23T07:09:59;5.20;99.90
40676;DHT22;26359;48.750;9.314;2024-02-23T07:12:24;5.20;99.90
40676;DHT22;26359;48.750;9.314;2024-02-23T07:14:52;5.30;99.90
40676;DHT22;26359;48.750;9.314;2024-02-23T07:17:17;5.30;99.90
40676;DHT22;26359;48.750;9.314;2024-02-23T07:19:44;5.30;99.90
40676;DHT22;26359;48.750;9.314;2024-02-23T07:22:10;5.30;99.90
40676;DHT22;26359;48.750;9.314;2024-02-23T07:24:42;5.30;99.90
40676;DHT22;26359;48.750;9.314;2024-02-23T07:27:08;5.40;99.90
40676;DHT22;26359;48.750;9.314;2024-02-23T07:29:33;5.40;99.90
40676;DHT22;26359;48.750;9.314;2024-02-23T07:31:59;5.40;99.90
40676;DHT22;26359;48.750;9.314;2024-02-23T07:34:24;5.40;99.90
40676;DHT22;26359;48.750;9.314;2024-02-23T07:36:54;5.40;99.90
40676;DHT22;26359;48.750;9.314;2024-02-23T07:39:20;5.40;99.90
40676;DHT22;26359;48.750;9.314;2024-02-23T07:41:47;5.40;99.90
40676;DHT22;26359;48.750;9.314;2024-02-23T07:44:12;5.50;99.90
40676;DHT22;26359;48.750;9.314;2024-02-23T07:46:38;5.50;99.90
40676;DHT22;26359;48.750;9.314;2024-02-23T07:49:05;5.50;99.90
40676;DHT22;26359;48.750;9.314;2024-02-23T07:51:31;5.50;99.90
40676;DHT22;26359;48.750;9.314;2024-02-23T07:53:57;5.50;99.90
40676;DHT22;26359;48.750;9.314;2024-02-23T07:56:22;5.60;99.90
40676;DHT22;26359;48.750;9.314;2024-02-23T07:58:48;5.60;99.90
40676;DHT22;26359;48.750;9.314;2024-02-23T08:01:17;5.60;99.90
40676;DHT22;26359;48.750;9.314;2024-02-23T08:03:42;5.60;99.90
40676;DHT22;26359;48.750;9.314;2024-02-23T08:06:08;5.70;99.90
40676;DHT22;26359;48.750;9.314;2024-02-23T08:08:35;5.70;99.90
40676;DHT22;26359;48.750;9.314;2024-02-23T08:11:02;5.70;99.90
40676;DHT22;26359;48.750;9.314;2024-02-23T08:13:28;5.70;99.90
40676;DHT22;26359;48.750;9.314;2024-02-23T08:15:53;5.70;99.90
40676;DHT22;26359;48.750;9.314;2024-02-23T08:18:19;5.70;99.90
40676;DHT22;26359;48.750;9.314;2024-02-23T08:20:44;5.70;99.90
40676;DHT22;26359;48.750;9.314;2024-02-23T08:23:10;5.60;99.90
40676;DHT22;26359;48.750;9.314;2024-02-23T08:25:36;5.60;99.90
40676;DHT22;26359;48.750;9.314;2024-02-23T08:28:02;5.70;99.90
40676;DHT22;26359;48.750;9.314;2024-02-23T08:30:27;5.70;99.90
40676;DHT22;26359;48.750;9.314;2024-02-23T08:32:53;5.70;99.90
40676;DHT22;26359;48.750;9.314;2024-02-23T08:35:18;5.80;99.90
40676;DHT22;26359;48.750;9.314;2024-02-23T08:37:44;5.80;99.90
40676;DHT22;26359;48.750;9.314;2024-02-23T08:40:10;5.80;99.90
40676;DHT22;26359;48.750;9.314;2024-02-23T08:42:36;5.70;99.90
40676;DHT22;26359;48.750;9.314;2024-02-23T08:45:02;5.70;99.90
40676;DHT22;26359;48.750;9.314;2024-02-23T08:47:27;5.70;99.90
40676;DHT22;26359;48.750;9.314;2024-02-23T08:49:57;5.70;99.90
40676;DHT22;26359;48.750;9.314;2024-02-23T08:52:23;5.70;99.90
40676;DHT22;26359;48.750;9.314;2024-02-23T08:54:48;5.70;99.90
40676;DHT22;26359;48.750;9.314;2024-02-23T08:57:14;5.80;99.90
40676;DHT22;26359;48.750;9.314;2024-02-23T08:59:44;5.80;99.90
40676;DHT22;26359;48.750;9.314;2024-02-23T09:02:10;5.90;99.90
40676;DHT22;26359;48.750;9.314;2024-02-23T09:04:36;5.80;99.90
40676;DHT22;26359;48.750;9.314;2024-02-23T09:07:01;5.80;99.90
40676;DHT22;26359;48.750;9.314;2024-02-23T09:09:27;5.90;99.90
40676;DHT22;26359;48.750;9.314;2024-02-23T09:11:52;5.90;99.90
40676;DHT22;26359;48.750;9.314;2024-02-23T09:14:18;6.00;99.90
40676;DHT22;26359;48.750;9.314;2024-02-23T09:16:44;6.00;99.90
40676;DHT22;26359;48.750;9.314;2024-02-23T09:19:11;6.00;99.90
40676;DHT22;26359;48.750;9.314;2024-02-23T09:21:37;6.10;99.90
40676;DHT22;26359;48.750;9.314;2024-02-23T09:24:03;6.00;99.90
40676;DHT22;26359;48.750;9.314;2024-02-23T09:26:29;6.10;99.90
40676;DHT22;26359;48.750;9.314;2024-02-23T09:28:54;6.20;99.90
40676;DHT22;26359;48.750;9.314;2024-02-23T09:31:20;6.10;99.90
40676;DHT22;26359;48.750;9.314;2024-02-23T09:33:45;6.10;99.90
40676;DHT22;26359;48.750;9.314;2024-02-23T09:36:12;6.10;99.90
40676;DHT22;26359;48.750;9.314;2024-02-23T09:38:37;6.10;99.90
40676;DHT22;26359;48.750;9.314;2024-02-23T09:41:03;6.30;99.90
40676;DHT22;26359;48.750;9.314;2024-02-23T09:43:29;6.30;99.90
40676;DHT22;26359;48.750;9.314;2024-02-23T09:45:58;6.30;99.90
40676;DHT22;26359;48.750;9.314;2024-02-23T09:48:25;6.30;99.90
40676;DHT22;26359;48.750;9.314;2024-02-23T09:50:52;6.30;99.90
40676;DHT22;26359;48.750;9.314;2024-02-23T09:53:19;6.30;99.90
40676;DHT22;26359;48.750;9.314;2024-02-23T09:55:45;6.40;99.90
40676;DHT22;26359;48.750;9.314;2024-02-23T09:58:14;6.40;99.90
40676;DHT22;26359;48.750;9.314;2024-02-23T10:00:42;6.50;99.90
40676;DHT22;26359;48.750;9.314;2024-02-23T10:03:09;6.70;99.90
40676;DHT22;26359;48.750;9.314;2024-02-23T10:05:34;6.70;99.90
40676;DHT22;26359;48.750;9.314;2024-02-23T10:08:00;6.90;99.90
40676;DHT22;26359;48.750;9.314;2024-02-23T10:10:35;7.00;99.90
40676;DHT22;26359;48.750;9.314;2024-02-23T10:13:01;7.00;99.90
40676;DHT22;26359;48.750;9.314;2024-02-23T10:15:29;7.00;99.90
40676;DHT22;26359;48.750;9.314;2024-02-23T10:17:55;6.90;99.90
40676;DHT22;26359;48.750;9.314;2024-02-23T10:20:21;7.00;99.90
40676;DHT22;26359;48.750;9.314;2024-02-23T10:22:47;7.00;99.90
40676;DHT22;26359;48.750;9.314;2024-02-23T10:25:12;7.00;99.90
40676;DHT22;26359;48.750;9.314;2024-02-23T10:27:38;6.90;99.90
40676;DHT22;26359;48.750;9.314;2024-02-23T10:30:05;6.80;99.90
40676;DHT22;26359;48.750;9.314;2024-02-23T10:32:31;6.90;99.90
40676;DHT22;26359;48.750;9.314;2024-02-23T10:35:00;6.90;99.90
40676;DHT22;26359;48.750;9.314;2024-02-23T10:37:29;7.00;99.90
40676;DHT22;26359;48.750;9.314;2024-02-23T10:39:57;7.10;99.90
40676;DHT22;26359;48.750;9.314;2024-02-23T10:42:30;7.00;99.90
40676;DHT22;26359;48.750;9.314;2024-02-23T10:44:59;7.00;99.90
40676;DHT22;26359;48.750;9.314;2024-02-23T10:47:26;7.00;99.90
40676;DHT22;26359;48.750;9.314;2024-02-23T10:49:53;7.00;99.90
40676;DHT22;26359;48.750;9.314;2024-02-23T10:52:22;7.10;99.90
40676;DHT22;26359;48.750;9.314;2024-02-23T10:54:49;7.00;99.90
40676;DHT22;26359;48.750;9.314;2024-02-23T10:57:17;7.00;99.90
40676;DHT22;26359;48.750;9.314;2024-02-23T10:59:46;7.00;99.90
40676;DHT22;26359;48.750;9.314;2024-02-23T11:02:14;6.90;99.90
40676;DHT22;26359;48.750;9.314;2024-02-23T11:04:45;7.00;99.90
40676;DHT22;26359;48.750;9.314;2024-02-23T11:07:15;7.00;99.90
40676;DHT22;26359;48.750;9.314;2024-02-23T11:09:41;7.00;99.90
40676;DHT22;26359;48.750;9.314;2024-02-23T11:12:07;7.10;99.90
40676;DHT22;26359;48.750;9.314;2024-02-23T11:14:37;7.20;99.90
40676;DHT22;26359;48.750;9.314;2024-02-23T11:17:03;7.30;99.90
40676;DHT22;26359;48.750;9.314;2024-02-23T11:19:37;7.30;99.90
40676;DHT22;26359;48.750;9.314;2024-02-23T11:22:03;7.30;99.90
40676;DHT22;26359;48.750;9.314;2024-02-23T11:24:30;7.30;99.90
40676;DHT22;26359;48.750;9.314;2024-02-23T11:26:59;7.40;99.90
40676;DHT22;26359;48.750;9.314;2024-02-23T11:29:29;7.40;99.90
40676;DHT22;26359;48.750;9.314;2024-02-23T11:31:55;7.30;99.90
40676;DHT22;26359;48.750;9.314;2024-02-23T11:34:26;7.40;99.90
40676;DHT22;26359;48.750;9.314;2024-02-23T11:36:52;7.40;99.90
40676;DHT22;26359;48.750;9.314;2024-02-23T11:39:19;7.40;99.90
40676;DHT22;26359;48.750;9.314;2024-02-23T11:41:45;7.40;99.90
40676;DHT22;26359;48.750;9.314;2024-02-23T11:44:13;7.30;99.90
40676;DHT22;26359;48.750;9.314;2024-02-23T11:46:39;7.40;99.90
40676;DHT22;26359;48.750;9.314;2024-02-23T11:49:04;7.40;99.90
40676;DHT22;26359;48.750;9.314;2024-02-23T11:51:30;7.50;99.90
40676;DHT22;26359;48.750;9.314;2024-02-23T11:53:56;7.50;99.90
40676;DHT22;26359;48.750;9.314;2024-02-23T11:56:23;7.60;99.90
40676;DHT22;26359;48.750;9.314;2024-02-23T11:58:49;7.70;99.90
40676;DHT22;26359;48.750;9.314;2024-02-23T12:01:14;7.70;99.90
40676;DHT22;26359;48.750;9.314;2024-02-23T12:03:40;7.80;99.90
40676;DHT22;26359;48.750;9.314;2024-02-23T12:06:07;7.90;99.90
40676;DHT22;26359;48.750;9.314;2024-02-23T12:08:33;7.90;99.90
40676;DHT22;26359;48.750;9.314;2024-02-23T12:11:04;7.90;99.90
40676;DHT22;26359;48.750;9.314;2024-02-23T12:13:30;7.90;99.90
40676;DHT22;26359;48.750;9.314;2024-02-23T12:15:55;8.00;99.90
40676;DHT22;26359;48.750;9.314;2024-02-23T12:18:22;8.00;99.90
40676;DHT22;26359;48.750;9.314;2024-02-23T12:20:49;7.90;99.90
40676;DHT22;26359;48.750;9.314;2024-02-23T12:23:14;7.80;99.90
40676;DHT22;26359;48.750;9.314;2024-02-23T12:25:40;7.80;99.90
40676;DHT22;26359;48.750;9.314;2024-02-23T12:28:06;7.90;99.90
40676;DHT22;26359;48.750;9.314;2024-02-23T12:30:31;8.00;99.90
40676;DHT22;26359;48.750;9.314;2024-02-23T12:33:07;8.10;99.90
40676;DHT22;26359;48.750;9.314;2024-02-23T12:35:34;8.10;99.90
40676;DHT22;26359;48.750;9.314;2024-02-23T12:38:00;8.20;99.90
40676;DHT22;26359;48.750;9.314;2024-02-23T12:40:25;8.20;99.90
40676;DHT22;26359;48.750;9.314;2024-02-23T12:42:51;8.10;99.90
40676;DHT22;26359;48.750;9.314;2024-02-23T12:45:17;8.10;99.90
40676;DHT22;26359;48.750;9.314;2024-02-23T12:47:42;8.20;99.90
40676;DHT22;26359;48.750;9.314;2024-02-23T12:50:08;8.20;99.90
40676;DHT22;26359;48.750;9.314;2024-02-23T12:52:34;8.30;99.90
40676;DHT22;26359;48.750;9.314;2024-02-23T12:55:00;8.30;99.90
40676;DHT22;26359;48.750;9.314;2024-02-23T12:57:25;8.30;99.90
40676;DHT22;26359;48.750;9.314;2024-02-23T12:59:51;8.30;99.90
40676;DHT22;26359;48.750;9.314;2024-02-23T13:02:16;8.20;99.90
40676;DHT22;26359;48.750;9.314;2024-02-23T13:04:42;8.10;99.90
40676;DHT22;26359;48.750;9.314;2024-02-23T13:07:14;8.00;99.90
40676;DHT22;26359;48.750;9.314;2024-02-23T13:09:39;8.10;99.90
40676;DHT22;26359;48.750;9.314;2024-02-23T13:12:08;8.10;99.90
40676;DHT22;26359;48.750;9.314;2024-02-23T13:14:33;8.00;99.90
40676;DHT22;26359;48.750;9.314;2024-02-23T13:16:59;8.10;99.90
40676;DHT22;26359;48.750;9.314;2024-02-23T13:19:24;8.20;99.90
40676;DHT22;26359;48.750;9.314;2024-02-23T13:21:50;8.20;99.90
40676;DHT22;26359;48.750;9.314;2024-02-23T13:24:15;8.30;99.90
40676;DHT22;26359;48.750;9.314;2024-02-23T13:26:41;8.30;99.90
40676;DHT22;26359;48.750;9.314;2024-02-23T13:29:07;8.40;99.90
40676;DHT22;26359;48.750;9.314;2024-02-23T13:31:32;8.40;99.90
40676;DHT22;26359;48.750;9.314;2024-02-23T13:33:58;8.40;99.90
40676;DHT22;26359;48.750;9.314;2024-02-23T13:36:26;8.40;99.90
40676;DHT22;26359;48.750;9.314;2024-02-23T13:38:52;8.30;99.90
40676;DHT22;26359;48.750;9.314;2024-02-23T13:41:20;8.40;99.90
40676;DHT22;26359;48.750;9.314;2024-02-23T13:43:53;8.40;99.90
40676;DHT22;26359;48.750;9.314;2024-02-23T13:46:18;8.50;99.90
40676;DHT22;26359;48.750;9.314;2024-02-23T13:48:44;8.40;99.90
40676;DHT22;26359;48.750;9.314;2024-02-23T13:51:10;8.40;99.90
40676;DHT22;26359;48.750;9.314;2024-02-23T13:53:35;8.40;99.90
40676;DHT22;26359;48.750;9.314;2024-02-23T13:56:02;8.40;99.90
40676;DHT22;26359;48.750;9.314;2024-02-23T13:58:29;8.40;99.90
40676;DHT22;26359;48.750;9.314;2024-02-23T14:00:54;8.40;99.90
40676;DHT22;26359;48.750;9.314;2024-02-23T14:03:20;8.30;99.90
40676;DHT22;26359;48.750;9.314;2024-02-23T14:05:47;8.30;99.90
40676;DHT22;26359;48.750;9.314;2024-02-23T14:08:12;8.30;99.90
40676;DHT22;26359;48.750;9.314;2024-02-23T14:10:38;8.30;99.90
40676;DHT22;26359;48.750;9.314;2024-02-23T14:13:05;8.20;99.90
40676;DHT22;26359;48.750;9.314;2024-02-23T14:15:30;8.20;99.90
40676;DHT22;26359;48.750;9.314;2024-02-23T14:17:56;8.20;99.90
40676;DHT22;26359;48.750;9.314;2024-02-23T14:20:22;8.30;99.90
40676;DHT22;26359;48.750;9.314;2024-02-23T14:22:47;8.30;99.90
40676;DHT22;26359;48.750;9.314;2024-02-23T14:25:15;8.30;99.90
40676;DHT22;26359;48.750;9.314;2024-02-23T14:27:41;8.30;99.90
40676;DHT22;26359;48.750;9.314;2024-02-23T14:30:07;8.30;99.90
40676;DHT22;26359;48.750;9.314;2024-02-23T14:32:33;8.40;99.90
40676;DHT22;26359;48.750;9.314;2024-02-23T14:35:01;8.40;99.90
40676;DHT22;26359;48.750;9.314;2024-02-23T14:37:28;8.50;99.90
40676;DHT22;26359;48.750;9.314;2024-02-23T14:39:54;8.50;99.90
40676;DHT22;26359;48.750;9.314;2024-02-23T14:42:19;8.60;99.90
40676;DHT22;26359;48.750;9.314;2024-02-23T14:44:45;8.70;99.90
40676;DHT22;26359;48.750;9.314;2024-02-23T14:47:11;8.80;99.90
40676;DHT22;26359;48.750;9.314;2024-02-23T14:49:37;9.00;99.90
40676;DHT22;26359;48.750;9.314;2024-02-23T14:52:03;9.10;99.90
40676;DHT22;26359;48.750;9.314;2024-02-23T14:54:29;9.30;99.90
40676;DHT22;26359;48.750;9.314;2024-02-23T14:56:55;9.40;99.90
40676;DHT22;26359;48.750;9.314;2024-02-23T14:59:20;9.50;99.90
40676;DHT22;26359;48.750;9.314;2024-02-23T15:01:46;9.60;99.90
40676;DHT22;26359;48.750;9.314;2024-02-23T15:04:12;9.50;99.90
40676;DHT22;26359;48.750;9.314;2024-02-23T15:06:37;9.50;99.90
40676;DHT22;26359;48.750;9.314;2024-02-23T15:09:03;9.40;99.90
40676;DHT22;26359;48.750;9.314;2024-02-23T15:11:29;9.40;99.90
40676;DHT22;26359;48.750;9.314;2024-02-23T15:13:55;9.30;99.90
40676;DHT22;26359;48.750;9.314;2024-02-23T15:16:50;9.20;99.90
40676;DHT22;26359;48.750;9.314;2024-02-23T15:19:16;9.10;99.90
40676;DHT22;26359;48.750;9.314;2024-02-23T15:21:41;9.00;99.90
40676;DHT22;26359;48.750;9.314;2024-02-23T15:24:07;9.00;99.90
40676;DHT22;26359;48.750;9.314;2024-02-23T15:26:33;8.90;99.90
40676;DHT22;26359;48.750;9.314;2024-02-23T15:28:59;8.90;99.90
40676;DHT22;26359;48.750;9.314;2024-02-23T15:31:24;8.90;99.90
40676;DHT22;26359;48.750;9.314;2024-02-23T15:33:50;8.80;99.90
40676;DHT22;26359;48.750;9.314;2024-02-23T15:36:15;8.80;99.90
40676;DHT22;26359;48.750;9.314;2024-02-23T15:38:41;8.90;99.90